Gainsborough, United Kingdom
Current Conditions -  °F | °C
As of 7:50 AM on Monday 26 Jan 2015 (Local Time) from EGXP Reporting Station
Broken Clouds Broken Clouds  
Wind Chill: 39°   Ceiling: 5000
Heat Index: 45°   Visibility: 6mi
Dew Point: 43°   Wind: 10mph
Humidity: 93%   Direction: 290°WNW
Pressure: 30.09"   Gusts: NA
Location:  53.38°N, 0.77°W
Report Text: EGXP 260750Z 29009KT 9999 FEW017 SCT025 BKN050 07/06 Q1019 BLU
Loading
Personal Weather Stations






























Interactive Weather Map New forecast layout! Learn more

10-Day Weather Forecast

Advertisements
Track Severe Weather on mobile